Time;durP1;ratioP1;P1;durP2;ratioP2;P2;SDS_P1;SDS_P2;PMS_P1;PMS_P2;Temp;Humidity;BMP_temperature;BMP_pressure;BME280_temperature;BME280_humidity;BME280_pressure;Samples;Min_cycle;Max_cycle;Signal;HPM_P1;HPM_P2
2022/05/23 00:00:49;;;;;;;4.40;0.77;;;;;;;11.84;45.61;101133.03;4957910;28;20392;-77
2022/05/23 00:03:15;;;;;;;3.10;1.20;;;;;;;11.85;45.62;101129.53;4946638;28;20039;-78
2022/05/23 00:05:40;;;;;;;2.55;0.40;;;;;;;11.79;45.41;101120.13;4964433;28;20074;-76
2022/05/23 00:08:06;;;;;;;0.75;0.20;;;;;;;11.82;45.37;101119.16;4971640;28;20145;-77
2022/05/23 00:10:32;;;;;;;3.78;0.60;;;;;;;11.96;45.02;101111.59;4948005;28;20093;-78
2022/05/23 00:12:58;;;;;;;4.40;0.38;;;;;;;12.03;45.04;101120.03;4970146;28;20051;-77
2022/05/23 00:15:24;;;;;;;7.30;0.50;;;;;;;12.12;44.52;101119.66;4945789;28;20214;-78
2022/05/23 00:17:50;;;;;;;1.20;0.30;;;;;;;12.07;44.37;101111.16;4969019;28;20090;-78
2022/05/23 00:20:19;;;;;;;4.13;0.38;;;;;;;12.17;44.51;101115.06;4974998;28;20512;-78
2022/05/23 00:22:45;;;;;;;4.05;0.45;;;;;;;12.19;44.08;101115.00;4936588;28;20169;-79
2022/05/23 00:25:11;;;;;;;2.42;0.40;;;;;;;12.20;43.77;101114.94;4964095;28;20038;-79
2022/05/23 00:27:40;;;;;;;3.95;0.35;;;;;;;12.25;43.97;101115.59;4955112;28;20069;-79
2022/05/23 00:30:13;;;;;;;2.50;0.30;;;;;;;12.21;43.70;101108.78;4957787;28;21207;-77
2022/05/23 00:35:24;;;;;;;0.80;0.20;;;;;;;12.15;43.89;101098.53;4975196;28;20037;-78
2022/05/23 00:37:55;;;;;;;5.18;0.50;;;;;;;12.07;44.14;101096.28;4959408;28;20058;-75
2022/05/23 00:40:30;;;;;;;0.85;0.30;;;;;;;11.96;44.14;101084.56;4962817;28;20046;-77
2022/05/23 00:43:14;;;;;;;3.67;0.43;;;;;;;11.87;44.70;101084.03;4970847;28;20434;-79
2022/05/23 00:45:41;;;;;;;2.58;0.35;;;;;;;11.94;44.15;101075.91;4956546;28;20398;-79
2022/05/23 00:48:08;;;;;;;4.30;0.70;;;;;;;11.94;44.42;101073.28;4971902;28;20091;-79
2022/05/23 00:50:35;;;;;;;2.38;0.30;;;;;;;11.96;44.17;101066.22;4960672;28;20035;-78
2022/05/23 00:53:02;;;;;;;2.50;0.20;;;;;;;11.96;44.27;101071.47;4960356;28;20043;-77
2022/05/23 00:55:39;;;;;;;1.75;0.30;;;;;;;11.93;43.96;101055.84;4956333;28;20034;-79
2022/05/23 00:58:12;;;;;;;4.30;0.57;;;;;;;11.88;44.28;101053.44;4961281;28;20043;-77
2022/05/23 01:00:38;;;;;;;1.55;0.47;;;;;;;11.84;44.50;101044.00;4977061;28;20072;-79
2022/05/23 01:03:11;;;;;;;2.35;0.40;;;;;;;11.80;44.59;101034.59;4959032;28;20042;-78
2022/05/23 01:05:38;;;;;;;2.33;0.20;;;;;;;11.65;44.85;101036.91;4961145;28;20030;-79
2022/05/23 01:08:04;;;;;;;1.77;0.40;;;;;;;11.66;44.58;101032.50;4953084;28;20046;-77
2022/05/23 01:10:31;;;;;;;5.93;0.55;;;;;;;11.68;44.74;101028.91;4961502;28;20097;-78
2022/05/23 01:12:57;;;;;;;3.10;0.60;;;;;;;11.60;44.79;101030.16;4959444;28;20077;-77
2022/05/23 01:15:25;;;;;;;1.77;0.40;;;;;;;11.52;44.66;101017.38;4972570;28;20071;-76
2022/05/23 01:17:51;;;;;;;3.00;0.22;;;;;;;11.46;44.52;101005.41;4955388;28;20382;-79
2022/05/23 01:20:18;;;;;;;6.72;0.60;;;;;;;11.48;44.28;100997.47;4946722;28;20053;-78
2022/05/23 01:23:11;;;;;;;1.90;0.38;;;;;;;11.42;44.61;101000.38;4956348;28;20044;-79
2022/05/23 01:25:54;;;;;;;4.82;0.43;;;;;;;11.27;44.47;100993.16;4973099;28;20046;-78
2022/05/23 01:28:38;;;;;;;5.82;0.30;;;;;;;11.14;45.26;100990.19;4971827;28;20039;-78
2022/05/23 01:31:08;;;;;;;3.35;0.43;;;;;;;11.17;44.63;100977.84;4942268;28;20081;-78
2022/05/23 01:33:34;;;;;;;0.50;0.30;;;;;;;11.15;44.81;100981.41;4972868;28;20042;-78
2022/05/23 01:36:02;;;;;;;2.03;0.40;;;;;;;11.09;44.86;100985.13;4949663;28;20030;-78
2022/05/23 01:38:28;;;;;;;2.42;0.20;;;;;;;11.04;44.91;100987.09;4962751;28;20543;-77
2022/05/23 01:40:59;;;;;;;1.60;0.20;;;;;;;11.03;44.89;100991.44;4959153;28;20031;-79
2022/05/23 01:43:26;;;;;;;2.05;0.50;;;;;;;11.01;45.04;100982.81;4962486;28;20287;-79
2022/05/23 01:46:14;;;;;;;3.55;0.30;;;;;;;10.95;44.65;100975.25;4958143;28;20048;-78
2022/05/23 01:49:00;;;;;;;4.70;0.40;;;;;;;10.92;44.84;100970.09;4946308;28;20061;-82
2022/05/23 01:51:26;;;;;;;3.08;0.30;;;;;;;10.88;45.06;100970.28;4973199;28;20670;-80
2022/05/23 01:53:52;;;;;;;1.77;0.30;;;;;;;10.77;45.18;100968.06;4947768;28;20055;-78
2022/05/23 01:56:17;;;;;;;1.08;0.35;;;;;;;10.62;45.63;100957.31;4962057;28;20497;-77
2022/05/23 02:01:36;;;;;;;7.55;0.30;;;;;;;10.59;45.71;100944.38;4968993;28;20193;-77
2022/05/23 02:04:02;;;;;;;1.58;0.50;;;;;;;10.59;45.91;100947.00;4944386;28;20448;-78
2022/05/23 02:06:39;;;;;;;1.67;0.82;;;;;;;10.59;45.67;100948.72;4961691;28;20035;-78
2022/05/23 02:09:08;;;;;;;2.58;0.35;;;;;;;10.56;46.16;100939.25;4940209;28;20035;-77
2022/05/23 02:11:42;;;;;;;3.15;0.43;;;;;;;10.52;46.33;100929.81;4946245;28;20120;-77
2022/05/23 02:14:09;;;;;;;3.25;0.40;;;;;;;10.43;46.62;100933.63;4953715;28;21734;-79
2022/05/23 02:16:40;;;;;;;2.63;0.43;;;;;;;10.38;46.62;100927.75;4960803;28;20074;-77
2022/05/23 02:19:06;;;;;;;3.58;0.30;;;;;;;10.40;46.73;100925.09;4970978;28;20042;-77
2022/05/23 02:21:31;;;;;;;12.82;0.95;;;;;;;10.35;46.93;100913.97;4957131;28;20354;-78
2022/05/23 02:23:57;;;;;;;4.10;0.47;;;;;;;10.24;47.41;100911.75;4942728;28;20094;-75
2022/05/23 02:26:22;;;;;;;4.72;0.75;;;;;;;10.21;47.78;100915.34;4958864;28;20039;-78
2022/05/23 02:29:12;;;;;;;3.22;0.52;;;;;;;10.20;47.84;100911.00;4930601;28;20129;-78
2022/05/23 02:31:38;;;;;;;2.38;0.70;;;;;;;10.15;48.21;100907.72;4961111;28;20619;-78
2022/05/23 02:34:07;;;;;;;5.93;0.50;;;;;;;10.25;47.77;100910.00;4941577;28;20042;-76
2022/05/23 02:36:42;;;;;;;2.78;0.63;;;;;;;10.22;47.74;100898.75;4956575;28;20866;-78
2022/05/23 02:39:12;;;;;;;4.70;0.70;;;;;;;10.24;47.72;100903.91;4957283;28;20437;-78
2022/05/23 02:41:39;;;;;;;4.03;0.50;;;;;;;10.11;48.29;100898.31;4957201;28;20023;-78
2022/05/23 02:44:07;;;;;;;3.30;1.00;;;;;;;10.16;48.51;100901.59;4943573;28;20026;-78
2022/05/23 02:46:33;;;;;;;2.42;0.70;;;;;;;10.16;48.26;100892.91;4957410;28;20109;-77
2022/05/23 02:49:10;;;;;;;3.22;0.40;;;;;;;10.15;48.49;100896.44;4945120;28;20054;-78
2022/05/23 02:51:40;;;;;;;3.72;0.70;;;;;;;10.07;48.48;100888.88;4962862;28;20216;-77
2022/05/23 02:54:09;;;;;;;5.22;1.25;;;;;;;10.00;48.68;100896.09;4941805;28;20043;-78
2022/05/23 02:56:36;;;;;;;3.83;1.50;;;;;;;10.03;48.77;100882.06;4966948;28;20038;-77
2022/05/23 02:59:03;;;;;;;2.30;0.70;;;;;;;10.06;48.37;100876.75;4963210;28;20043;-77
2022/05/23 03:01:29;;;;;;;6.78;0.82;;;;;;;10.03;48.59;100879.44;4961764;28;20532;-77
2022/05/23 03:03:55;;;;;;;3.65;0.75;;;;;;;10.03;48.66;100882.06;4961903;28;20532;-77
2022/05/23 03:06:21;;;;;;;2.10;0.50;;;;;;;10.06;48.40;100887.19;4969037;28;20031;-79
2022/05/23 03:08:48;;;;;;;4.88;0.80;;;;;;;10.03;48.55;100876.84;4960073;28;20042;-78
2022/05/23 03:11:14;;;;;;;1.73;0.68;;;;;;;9.95;48.37;100882.38;4966928;28;20255;-77
2022/05/23 03:13:41;;;;;;;8.68;0.80;;;;;;;9.97;48.67;100866.66;4946246;28;20039;-76
2022/05/23 03:16:09;;;;;;;2.20;0.70;;;;;;;10.03;48.49;100866.41;4953386;28;20046;-76
2022/05/23 03:18:37;;;;;;;4.32;0.50;;;;;;;10.00;48.62;100859.53;4959703;28;20094;-78
2022/05/23 03:21:09;;;;;;;5.07;0.80;;;;;;;9.91;48.77;100861.66;4953823;28;20035;-78
2022/05/23 03:29:10;;;;;;;6.28;0.90;;;;;;;9.82;49.36;100843.72;4966633;28;20051;-78
2022/05/23 03:31:38;;;;;;;1.85;0.82;;;;;;;9.90;49.48;100844.25;4965368;28;20034;-80
2022/05/23 03:34:06;;;;;;;5.47;0.88;;;;;;;9.91;49.65;100843.38;4952358;28;20074;-77
2022/05/23 03:36:32;;;;;;;2.58;0.98;;;;;;;9.96;49.30;100842.28;4971487;28;20121;-77
2022/05/23 03:38:57;;;;;;;3.08;1.02;;;;;;;9.93;49.55;100846.78;4960251;28;20106;-77
2022/05/23 03:41:23;;;;;;;9.40;1.10;;;;;;;10.08;49.18;100851.44;4967625;28;20041;-79
2022/05/23 03:43:50;;;;;;;9.27;0.85;;;;;;;10.13;49.29;100867.75;4964060;28;20031;-77
2022/05/23 03:46:16;;;;;;;2.38;0.80;;;;;;;10.18;48.82;100865.81;4948079;28;20042;-77
2022/05/23 03:48:41;;;;;;;3.92;0.77;;;;;;;10.18;48.82;100859.75;4978205;28;20101;-78
2022/05/23 03:51:09;;;;;;;4.70;1.25;;;;;;;10.22;48.96;100867.41;4961223;28;20061;-78
2022/05/23 03:53:35;;;;;;;2.42;1.02;;;;;;;10.28;49.02;100857.63;4965591;28;20398;-78
2022/05/23 03:56:05;;;;;;;2.10;1.20;;;;;;;10.37;48.91;100859.88;4962473;28;20027;-76
2022/05/23 03:58:43;;;;;;;1.88;0.77;;;;;;;10.46;48.71;100848.19;4963206;28;20046;-77
2022/05/23 04:01:23;;;;;;;4.00;1.45;;;;;;;10.50;48.52;100845.41;4964225;28;20493;-81
2022/05/23 04:03:57;;;;;;;7.18;1.50;;;;;;;10.53;48.36;100829.63;4973913;28;20031;-78
2022/05/23 04:06:24;;;;;;;4.78;1.25;;;;;;;10.50;48.69;100831.50;4971527;28;20039;-78
2022/05/23 04:09:02;;;;;;;1.80;1.00;;;;;;;10.67;48.27;100829.06;4966862;28;20094;-78
2022/05/23 04:11:28;;;;;;;4.30;1.48;;;;;;;10.76;48.12;100825.22;4976172;28;20030;-76
2022/05/23 04:13:56;;;;;;;1.88;0.80;;;;;;;10.72;47.92;100823.63;4960402;28;20039;-78
2022/05/23 04:16:23;;;;;;;4.63;0.98;;;;;;;10.77;48.09;100824.28;4959039;28;20105;-78
2022/05/23 04:18:49;;;;;;;3.63;1.10;;;;;;;10.97;47.27;100819.13;4942388;28;20039;-76
2022/05/23 04:21:14;;;;;;;3.92;0.77;;;;;;;11.10;47.49;100810.72;4958005;28;20023;-79
2022/05/23 04:23:44;;;;;;;3.35;0.90;;;;;;;11.21;47.17;100811.97;4964310;28;20046;-78
2022/05/23 04:26:11;;;;;;;3.58;1.33;;;;;;;11.34;46.82;100807.03;4965110;28;20539;-80
2022/05/23 04:28:40;;;;;;;6.18;0.85;;;;;;;11.55;46.05;100799.97;4972313;28;20031;-78
2022/05/23 04:31:09;;;;;;;3.70;1.30;;;;;;;11.75;45.97;100801.69;4972315;28;20038;-78
2022/05/23 04:36:40;;;;;;;5.22;0.80;;;;;;;12.15;44.54;100789.38;4971615;28;20113;-78
2022/05/23 04:39:07;;;;;;;6.38;1.42;;;;;;;12.26;43.90;100781.84;4949803;28;20039;-79
2022/05/23 04:41:35;;;;;;;5.47;2.30;;;;;;;12.36;44.02;100768.31;4973006;28;20046;-80
2022/05/23 04:44:01;;;;;;;4.18;0.93;;;;;;;12.47;43.33;100773.88;4944963;28;20070;-78
2022/05/23 04:46:28;;;;;;;2.35;0.73;;;;;;;12.62;43.18;100767.84;4963835;28;20042;-77
2022/05/23 04:52:04;;;;;;;5.75;1.15;;;;;;;12.83;42.64;100757.25;4970643;28;20062;-78
2022/05/23 04:54:39;;;;;;;8.20;1.45;;;;;;;12.77;42.99;100749.69;4958369;28;20031;-77
2022/05/23 04:57:06;;;;;;;1.77;0.75;;;;;;;12.51;43.22;100743.94;4952774;28;20038;-76
2022/05/23 04:59:34;;;;;;;2.58;1.00;;;;;;;12.73;43.04;100737.66;4958453;28;20069;-82
2022/05/23 05:02:02;;;;;;;1.77;1.10;;;;;;;12.73;43.00;100729.78;4952833;28;20784;-80
2022/05/23 05:04:29;;;;;;;4.00;1.20;;;;;;;12.44;43.21;100729.44;4962163;28;20051;-77
2022/05/23 05:06:55;;;;;;;2.58;1.42;;;;;;;12.63;42.39;100724.97;4953176;28;20624;-77
2022/05/23 05:09:22;;;;;;;2.85;1.52;;;;;;;12.64;41.90;100724.03;4974192;28;20023;-78
2022/05/23 05:11:57;;;;;;;5.05;1.05;;;;;;;13.04;41.55;100721.16;4943472;28;20100;-79
2022/05/23 05:14:27;;;;;;;4.32;1.48;;;;;;;13.39;40.59;100721.91;4946214;28;20441;-78
2022/05/23 05:16:55;;;;;;;7.15;1.42;;;;;;;13.72;40.30;100711.34;4953696;28;20035;-79
2022/05/23 05:19:23;;;;;;;3.47;1.30;;;;;;;14.19;38.37;100706.09;4950611;28;20031;-78
2022/05/23 05:21:51;;;;;;;4.68;1.80;;;;;;;14.93;37.47;100697.34;4975514;28;20275;-77
2022/05/23 05:24:26;;;;;;;4.90;1.33;;;;;;;16.38;34.67;100705.63;4972110;28;20618;-78
2022/05/23 05:27:12;;;;;;;2.17;0.90;;;;;;;17.45;32.44;100688.59;4956128;28;20413;-76
2022/05/23 05:29:37;;;;;;;1.40;0.80;;;;;;;17.46;32.33;100684.97;4959347;28;20039;-77
2022/05/23 05:32:21;;;;;;;17.35;6.78;;;;;;;16.98;32.88;100675.16;4937493;28;20408;-78
2022/05/23 05:34:59;;;;;;;4.97;1.83;;;;;;;18.45;30.68;100671.50;4953950;28;20606;-75
2022/05/23 05:37:31;;;;;;;5.88;1.83;;;;;;;19.00;29.28;100661.06;4973858;28;20169;-78
2022/05/23 05:40:00;;;;;;;8.60;1.00;;;;;;;19.37;28.69;100652.84;4959356;28;20108;-78
2022/05/23 05:42:31;;;;;;;4.53;1.42;;;;;;;20.41;27.47;100659.28;4944241;28;20821;-77
2022/05/23 05:45:01;;;;;;;4.00;1.15;;;;;;;20.72;26.54;100657.47;4954984;28;20031;-79
2022/05/23 05:47:32;;;;;;;2.53;1.03;;;;;;;21.21;26.17;100647.06;4970773;28;20054;-78
2022/05/23 05:50:09;;;;;;;5.50;1.58;;;;;;;20.45;27.18;100650.09;4958160;28;20497;-80
2022/05/23 05:52:49;;;;;;;5.55;1.40;;;;;;;19.30;28.55;100648.97;4958263;28;20134;-78
2022/05/23 05:55:17;;;;;;;8.30;2.08;;;;;;;17.68;31.11;100657.03;4941997;28;20047;-76
2022/05/23 05:57:49;;;;;;;4.30;1.40;;;;;;;16.46;33.32;100654.16;4954168;28;20083;-74
2022/05/23 06:00:15;;;;;;;3.03;1.33;;;;;;;17.70;31.66;100649.84;4942569;28;20038;-76
2022/05/23 06:02:44;;;;;;;4.18;1.75;;;;;;;17.29;32.21;100645.72;4968027;28;20046;-77
2022/05/23 06:05:13;;;;;;;8.63;1.80;;;;;;;16.37;34.37;100632.72;4953255;28;20427;-78
2022/05/23 06:13:36;;;;;;;4.10;1.75;;;;;;;17.81;31.54;100626.09;4970783;28;20135;-76
2022/05/23 06:16:11;;;;;;;3.83;1.17;;;;;;;17.39;32.40;100620.34;4959844;28;21181;-78
2022/05/23 06:18:51;;;;;;;1.98;1.73;;;;;;;16.71;33.69;100613.72;4953483;28;20038;-79
2022/05/23 06:21:17;;;;;;;4.13;1.63;;;;;;;16.37;34.46;100619.53;4938476;28;20097;-78
2022/05/23 06:23:47;;;;;;;1.77;1.40;;;;;;;16.28;35.24;100609.63;4956689;28;20140;-78
2022/05/23 06:26:37;;;;;;;3.85;1.70;;;;;;;16.33;34.81;100607.53;4968625;28;20134;-80
2022/05/23 06:29:36;;;;;;;4.30;1.88;;;;;;;15.41;36.51;100613.59;4939197;28;20047;-78
2022/05/23 06:32:22;;;;;;;8.38;2.75;;;;;;;15.37;36.94;100617.38;4956520;28;20128;-77
2022/05/23 06:34:48;;;;;;;5.88;2.88;;;;;;;14.79;37.96;100610.50;4962521;28;20035;-76
2022/05/23 06:37:14;;;;;;;3.83;1.45;;;;;;;16.03;36.30;100612.25;4948382;28;20101;-76
2022/05/23 06:39:40;;;;;;;9.20;2.85;;;;;;;17.26;34.21;100601.88;4972015;28;20090;-78
2022/05/23 06:42:35;;;;;;;11.02;2.50;;;;;;;19.42;30.28;100597.66;4942262;28;20043;-75
2022/05/23 06:45:19;;;;;;;6.68;1.73;;;;;;;20.48;28.49;100583.44;4955612;28;20042;-79
2022/05/23 06:48:11;;;;;;;3.90;1.35;;;;;;;19.91;29.09;100582.16;4950913;28;20030;-77
2022/05/23 06:50:55;;;;;;;11.65;4.90;;;;;;;21.15;27.39;100578.50;4957816;28;20058;-77
2022/05/23 06:53:31;;;;;;;3.65;1.25;;;;;;;20.30;28.49;100577.91;4945962;28;20050;-77
2022/05/23 06:56:10;;;;;;;3.08;1.25;;;;;;;22.88;25.75;100572.19;4955301;28;20034;-79
2022/05/23 06:58:36;;;;;;;4.05;1.65;;;;;;;24.28;23.85;100573.38;4959315;28;20035;-78
2022/05/23 07:01:05;;;;;;;2.50;1.00;;;;;;;23.98;23.43;100579.03;4944589;28;20045;-78
2022/05/23 07:03:49;;;;;;;4.13;1.33;;;;;;;24.59;23.47;100566.56;4952556;28;20307;-78
2022/05/23 07:14:38;;;;;;;4.93;1.35;;;;;;;24.52;23.20;100554.81;4970178;28;20049;-79
2022/05/23 07:17:05;;;;;;;4.20;1.98;;;;;;;24.28;23.33;100557.34;4955330;28;20101;-78
2022/05/23 07:19:49;;;;;;;8.93;1.65;;;;;;;24.62;23.41;100549.34;4967003;28;20433;-79
2022/05/23 07:22:17;;;;;;;2.88;1.73;;;;;;;25.72;22.22;100547.34;4970878;28;20031;-78
2022/05/23 07:24:44;;;;;;;3.65;1.50;;;;;;;25.37;22.17;100548.50;4959959;28;20055;-79
2022/05/23 07:27:14;;;;;;;;;;;;;;;25.80;22.39;100554.53;4959356;28;20677;-78
2022/05/23 07:29:41;;;;;;;2.72;1.27;;;;;;;25.57;22.39;100541.84;4959569;28;19922;-77
2022/05/23 07:32:11;;;;;;;3.45;1.50;;;;;;;26.55;21.02;100538.09;4942473;28;20079;-76
2022/05/23 07:34:39;;;;;;;5.55;1.45;;;;;;;26.46;21.13;100539.13;4956435;28;20039;-75
2022/05/23 07:37:05;;;;;;;7.63;1.52;;;;;;;25.58;21.52;100545.38;4958585;28;20106;-78
2022/05/23 07:39:31;;;;;;;3.42;1.05;;;;;;;25.36;21.73;100555.69;4955726;28;20113;-75
2022/05/23 07:42:23;;;;;;;;;;;;;;;25.79;21.94;100548.34;4930439;28;20126;-76
2022/05/23 07:44:49;;;;;;;1.77;1.10;;;;;;;26.20;21.20;100544.75;4955766;28;20004;-77
2022/05/23 07:47:17;;;;;;;2.92;1.20;;;;;;;25.26;22.53;100547.00;4956574;28;20043;-79
2022/05/23 07:49:53;;;;;;;4.47;1.70;;;;;;;22.14;25.95;100549.09;4940463;28;20418;-79
2022/05/23 07:52:18;;;;;;;2.97;1.40;;;;;;;20.92;28.40;100546.88;4956995;28;20043;-76
2022/05/23 08:00:31;;;;;;;4.88;1.70;;;;;;;21.19;27.80;100531.25;4972251;28;20027;-76
2022/05/23 08:03:05;;;;;;;4.03;1.83;;;;;;;22.42;26.21;100531.31;4937498;28;20054;-80
2022/05/23 08:05:32;;;;;;;5.55;1.55;;;;;;;23.21;25.12;100532.53;4963039;28;20042;-77
2022/05/23 08:07:58;;;;;;;4.03;1.33;;;;;;;24.54;24.06;100525.28;4950776;28;20137;-78
2022/05/23 08:10:26;;;;;;;3.75;1.52;;;;;;;25.68;22.81;100521.94;4957299;28;20130;-79
2022/05/23 08:12:57;;;;;;;5.10;1.58;;;;;;;25.03;22.60;100515.56;4965765;28;20070;-76
2022/05/23 08:15:26;;;;;;;2.72;1.30;;;;;;;24.80;22.92;100515.31;4954114;28;20031;-80
2022/05/23 08:18:01;;;;;;;4.53;1.90;;;;;;;25.44;22.02;100518.25;4952305;28;20090;-78
2022/05/23 08:20:34;;;;;;;1.95;1.10;;;;;;;24.84;23.06;100497.97;4958484;28;20818;-77
2022/05/23 08:23:00;;;;;;;8.38;2.05;;;;;;;25.51;23.13;100502.38;4952051;28;20046;-79
2022/05/23 08:25:37;;;;;;;5.43;1.73;;;;;;;24.85;23.22;100490.78;4956109;28;20673;-77
2022/05/23 08:28:03;;;;;;;6.57;2.15;;;;;;;25.29;22.34;100484.34;4941497;28;20097;-77
2022/05/23 08:30:30;;;;;;;3.50;1.80;;;;;;;24.82;23.12;100480.44;4959592;28;20053;-77
2022/05/23 08:33:05;;;;;;;6.13;2.05;;;;;;;25.48;22.72;100474.09;4951483;28;20122;-77
2022/05/23 08:35:31;;;;;;;12.00;3.10;;;;;;;25.90;21.56;100476.72;4961691;28;20041;-79
2022/05/23 08:38:00;;;;;;;3.83;1.70;;;;;;;25.65;22.43;100466.91;4937356;28;20421;-76
2022/05/23 08:40:53;;;;;;;4.97;1.55;;;;;;;26.12;22.43;100470.66;4953381;28;20107;-75
2022/05/23 08:43:43;;;;;;;9.02;1.63;;;;;;;25.70;23.04;100463.72;4950795;28;20098;-77
2022/05/23 08:46:14;;;;;;;4.80;1.83;;;;;;;25.94;22.39;100476.22;4953192;28;20047;-80
2022/05/23 08:49:26;;;;;;;7.75;1.80;;;;;;;25.34;23.48;100468.59;4953137;28;20039;-79
2022/05/23 08:52:09;;;;;;;1.75;1.58;;;;;;;25.09;23.17;100460.59;4921872;28;20042;-76
2022/05/23 08:54:54;;;;;;;4.28;1.80;;;;;;;25.04;23.33;100460.28;4954605;28;20039;-77
2022/05/23 08:57:45;;;;;;;5.00;1.50;;;;;;;24.89;23.79;100453.88;4952806;28;20062;-78
2022/05/23 09:00:16;;;;;;;3.30;1.58;;;;;;;23.90;24.54;100447.38;4952909;28;20702;-78
2022/05/23 09:02:51;;;;;;;7.13;1.60;;;;;;;24.06;24.78;100458.13;4951776;28;20494;-76
2022/05/23 09:05:34;;;;;;;4.03;1.20;;;;;;;24.47;24.37;100439.59;4967608;28;20031;-78
2022/05/23 09:08:04;;;;;;;2.30;1.63;;;;;;;25.51;23.80;100437.31;4949613;28;20043;-78
2022/05/23 09:11:05;;;;;;;5.57;1.92;;;;;;;25.90;23.16;100436.56;4952007;28;20063;-78
2022/05/23 09:13:36;;;;;;;6.50;1.10;;;;;;;25.87;23.60;100432.41;4949756;28;20090;-77
2022/05/23 09:16:04;;;;;;;2.42;1.60;;;;;;;25.95;23.38;100429.66;4957608;28;20950;-79
2022/05/23 09:18:42;;;;;;;3.25;1.23;;;;;;;25.44;23.60;100432.66;4951247;28;20039;-78
2022/05/23 09:21:08;;;;;;;2.78;2.00;;;;;;;24.57;24.75;100429.63;4971792;28;20031;-79
2022/05/23 09:23:45;;;;;;;6.72;2.15;;;;;;;24.39;25.43;100419.03;4958874;28;20100;-77
2022/05/23 09:26:21;;;;;;;5.38;1.52;;;;;;;23.95;26.04;100423.72;4934961;28;20085;-78
2022/05/23 09:28:46;;;;;;;10.23;2.00;;;;;;;24.09;25.42;100415.09;4964802;28;20133;-77
2022/05/23 09:31:14;;;;;;;3.22;1.90;;;;;;;23.49;26.69;100418.59;4941918;28;20114;-79
2022/05/23 09:33:46;;;;;;;3.05;1.23;;;;;;;24.16;26.81;100404.59;4949141;28;20102;-77
2022/05/23 09:36:23;;;;;;;4.72;2.13;;;;;;;23.42;26.90;100407.72;4938297;28;20042;-78
2022/05/23 09:38:51;;;;;;;3.72;1.90;;;;;;;23.03;28.04;100401.09;4957759;28;20564;-79
2022/05/23 09:50:04;;;;;;;5.88;1.70;;;;;;;22.30;29.74;100378.09;4964734;28;20046;-77
2022/05/23 09:52:32;;;;;;;4.63;1.85;;;;;;;22.41;29.19;100366.41;4953525;28;20043;-84
2022/05/23 09:55:10;;;;;;;3.97;2.60;;;;;;;21.99;29.42;100375.72;4948286;28;20127;-77
2022/05/23 09:57:40;;;;;;;4.03;1.88;;;;;;;23.03;28.37;100369.09;4965691;28;20054;-79
2022/05/23 10:00:32;;;;;;;4.88;1.73;;;;;;;22.98;28.22;100367.75;4937578;28;20172;-79
2022/05/23 10:02:59;;;;;;;3.58;1.45;;;;;;;22.98;28.56;100362.41;4966658;28;20586;-80
2022/05/23 10:05:28;;;;;;;5.20;1.90;;;;;;;22.88;28.30;100356.34;4968325;28;20069;-78
2022/05/23 10:08:05;;;;;;;4.68;2.22;;;;;;;22.65;28.53;100349.78;4955534;28;20126;-76
2022/05/23 10:10:37;;;;;;;6.13;1.90;;;;;;;22.61;29.11;100348.44;4968433;28;20611;-79
2022/05/23 10:13:25;;;;;;;4.32;1.75;;;;;;;22.87;28.76;100336.00;4948967;28;20043;-81
2022/05/23 10:15:59;;;;;;;2.88;1.48;;;;;;;23.02;28.06;100343.47;4956940;28;20039;-76
2022/05/23 10:18:31;;;;;;;6.20;2.85;;;;;;;23.26;27.87;100334.78;4957233;28;20043;-77
2022/05/23 10:20:59;;;;;;;4.95;1.90;;;;;;;22.51;28.54;100333.34;4954645;28;20153;-76
2022/05/23 10:23:31;;;;;;;3.72;1.90;;;;;;;22.76;28.79;100336.25;4963735;28;20106;-79
2022/05/23 10:26:21;;;;;;;4.47;1.85;;;;;;;23.59;27.89;100323.31;4950494;28;20049;-78
2022/05/23 10:29:00;;;;;;;2.53;1.67;;;;;;;23.20;28.56;100320.25;4967149;28;20497;-79
2022/05/23 10:31:45;;;;;;;3.78;1.30;;;;;;;23.66;27.44;100315.50;4967224;28;20849;-79
2022/05/23 10:34:13;;;;;;;4.43;1.40;;;;;;;23.67;27.37;100316.34;4962897;28;20053;-78
2022/05/23 10:36:42;;;;;;;5.32;1.85;;;;;;;23.50;28.29;100321.63;4964452;28;20057;-79
2022/05/23 10:42:10;;;;;;;6.38;1.98;;;;;;;24.19;26.26;100302.81;4964221;28;20101;-79
2022/05/23 10:44:57;;;;;;;3.50;2.33;;;;;;;23.92;26.89;100301.28;4949183;28;20031;-76
2022/05/23 10:48:03;;;;;;;5.00;1.80;;;;;;;23.02;28.19;100292.81;4952600;28;20485;-78
2022/05/23 10:50:46;;;;;;;4.63;2.03;;;;;;;23.39;27.79;100301.41;4953944;28;20037;-80
2022/05/23 10:53:33;;;;;;;12.43;2.17;;;;;;;22.26;28.49;100292.38;4962989;28;20126;-79
2022/05/23 10:56:26;;;;;;;7.95;2.08;;;;;;;23.00;27.55;100283.16;4965814;28;20031;-78
2022/05/23 10:58:56;;;;;;;6.35;2.22;;;;;;;23.69;26.62;100274.34;4955284;28;20046;-77
2022/05/23 11:02:07;;;;;;;5.43;2.10;;;;;;;23.45;26.79;100277.75;4952221;28;20031;-81
2022/05/23 11:04:46;;;;;;;3.88;1.75;;;;;;;23.40;26.50;100264.88;4902457;29;20122;-78
2022/05/23 11:07:43;;;;;;;5.68;2.45;;;;;;;23.11;26.90;100271.38;4904577;28;20142;-79
2022/05/23 11:10:20;;;;;;;5.45;1.70;;;;;;;22.96;26.99;100262.31;4943149;28;20047;-77
2022/05/23 11:13:01;;;;;;;3.20;1.55;;;;;;;22.90;27.03;100257.63;4939240;28;20126;-78
2022/05/23 11:16:05;;;;;;;5.60;1.67;;;;;;;23.35;27.18;100257.38;4968745;28;20129;-78
2022/05/23 11:18:51;;;;;;;7.30;1.77;;;;;;;22.56;27.80;100256.53;4918272;29;20598;-77
2022/05/23 11:21:36;;;;;;;4.55;2.10;;;;;;;22.82;27.91;100255.72;4951370;28;20120;-78
2022/05/23 11:24:10;;;;;;;2.50;1.45;;;;;;;23.25;27.05;100245.97;4967481;28;20045;-78
2022/05/23 11:26:42;;;;;;;4.57;1.75;;;;;;;23.36;26.86;100229.69;4956478;28;20026;-78
2022/05/23 11:34:56;;;;;;;3.30;1.75;;;;;;;23.23;25.92;100223.97;4966185;28;20133;-79
2022/05/23 11:37:43;;;;;;;9.35;1.60;;;;;;;23.46;25.71;100204.75;4970476;28;20952;-80
2022/05/23 11:40:30;;;;;;;1.80;1.08;;;;;;;23.49;26.00;100199.09;4967277;28;20027;-79
2022/05/23 11:43:09;;;;;;;2.38;1.42;;;;;;;23.35;25.66;100198.72;4966606;28;20556;-80
2022/05/23 11:48:35;;;;;;;2.05;1.25;;;;;;;23.45;25.48;100203.06;4967022;28;20046;-78
2022/05/23 11:51:36;;;;;;;4.57;2.33;;;;;;;23.29;26.10;100188.69;4968934;28;20043;-78
2022/05/23 11:54:13;;;;;;;2.35;1.00;;;;;;;23.82;24.73;100187.47;4953324;28;20078;-78
2022/05/23 11:56:58;;;;;;;4.67;1.20;;;;;;;24.57;24.83;100173.16;4952207;28;20194;-76
2022/05/23 11:59:23;;;;;;;9.10;0.85;;;;;;;24.55;25.28;100171.66;4956709;28;20046;-79
2022/05/23 12:02:07;;;;;;;2.70;1.30;;;;;;;23.81;24.24;100163.63;4968276;28;20539;-81
2022/05/23 12:04:34;;;;;;;4.18;1.30;;;;;;;23.67;24.60;100154.44;4967834;28;20517;-77
2022/05/23 12:07:00;;;;;;;5.63;1.48;;;;;;;24.22;25.13;100148.47;4955089;28;20042;-81
2022/05/23 12:09:30;;;;;;;3.53;1.45;;;;;;;23.93;24.99;100145.50;4946815;28;20050;-77
2022/05/23 12:12:29;;;;;;;4.50;1.20;;;;;;;23.88;25.23;100134.47;4954960;28;20043;-81
2022/05/23 12:14:56;;;;;;;8.98;1.83;;;;;;;23.80;25.91;100137.97;4959636;28;20098;-81
2022/05/23 12:17:27;;;;;;;1.98;1.10;;;;;;;23.87;26.16;100124.81;4945663;28;20098;-78
2022/05/23 12:19:56;;;;;;;3.58;1.52;;;;;;;24.37;25.23;100123.75;4970272;28;20759;-80
2022/05/23 12:22:32;;;;;;;4.10;1.65;;;;;;;23.99;24.83;100110.13;4939925;28;20042;-78
2022/05/23 12:25:16;;;;;;;3.58;1.65;;;;;;;24.09;25.40;100104.63;4970758;28;20552;-78
2022/05/23 12:27:45;;;;;;;4.78;1.48;;;;;;;23.57;25.79;100108.44;4954363;28;20062;-79
2022/05/23 12:30:17;;;;;;;6.65;1.30;;;;;;;23.79;25.13;100110.44;4970329;28;20574;-82
2022/05/23 12:32:51;;;;;;;7.60;1.80;;;;;;;24.05;25.12;100112.13;4969635;28;20923;-79
2022/05/23 12:35:19;;;;;;;3.63;1.55;;;;;;;23.65;25.84;100097.75;4953429;28;20039;-78
2022/05/23 12:37:57;;;;;;;6.97;1.23;;;;;;;23.18;26.05;100093.00;4956538;28;20039;-79
2022/05/23 12:40:30;;;;;;;7.00;1.42;;;;;;;23.49;25.87;100087.91;4961201;28;20036;-80
2022/05/23 12:42:59;;;;;;;3.90;1.25;;;;;;;23.85;25.89;100086.75;4956777;28;20051;-80
2022/05/23 12:45:52;;;;;;;6.35;1.02;;;;;;;23.86;25.23;100083.13;4969955;28;20038;-78
2022/05/23 12:48:33;;;;;;;4.80;1.90;;;;;;;24.09;25.31;100078.75;4953256;28;20082;-78
2022/05/23 12:51:39;;;;;;;4.60;1.98;;;;;;;24.74;24.13;100060.88;4972241;28;20505;-78